DAL1715 KSFO-KLAX
Flight info
| Callsign | DAL1715 |
|---|---|
| Flight time | 0h 55m |
| Altitude | 33000 |
| Route | WESLA5 SUSEY EBAYE BURGL IRNMN2 |
| Aircraft | B738/M-SDE2E3FGHIRWXY/LB1 |
Departure
| Time | 2026-04-25 16:42 |
|---|---|
| Airport | San Francisco International Airport (KSFO) |
Arrival
| Time | 2026-04-25 17:37 |
|---|---|
| Airport | Los Angeles International Airport (KLAX) |
| Time | Latitude | Longitude | Altitude | Speed | Heading |
|---|---|---|---|---|---|
| 2026-04-25 16:05 | 37.61429 | -122.38233 | 13 ft | 0 kts | 352° |
| 2026-04-25 16:20 | 37.61428 | -122.38233 | 13 ft | 2 kts | 352° |
| 2026-04-25 16:20 | 37.61412 | -122.38231 | 14 ft | 2 kts | 353° |
| 2026-04-25 16:20 | 37.61380 | -122.38225 | 15 ft | 2 kts | 359° |
| 2026-04-25 16:21 | 37.61364 | -122.38228 | 14 ft | 2 kts | 47° |
| 2026-04-25 16:21 | 37.61358 | -122.38239 | 13 ft | 1 kts | 84° |
| 2026-04-25 16:21 | 37.61358 | -122.38242 | 13 ft | 0 kts | 85° |
| 2026-04-25 16:31 | 37.61359 | -122.38228 | 13 ft | 4 kts | 84° |
| 2026-04-25 16:32 | 37.61375 | -122.38171 | 14 ft | 7 kts | 53° |
| 2026-04-25 16:32 | 37.61400 | -122.38124 | 14 ft | 7 kts | 67° |
| 2026-04-25 16:32 | 37.61399 | -122.38068 | 14 ft | 6 kts | 109° |
| 2026-04-25 16:32 | 37.61381 | -122.38018 | 16 ft | 6 kts | 117° |
| 2026-04-25 16:33 | 37.61359 | -122.37968 | 14 ft | 7 kts | 119° |
| 2026-04-25 16:33 | 37.61336 | -122.37915 | 14 ft | 7 kts | 120° |
| 2026-04-25 16:33 | 37.61312 | -122.37864 | 16 ft | 7 kts | 120° |
| 2026-04-25 16:33 | 37.61289 | -122.37813 | 19 ft | 7 kts | 119° |
| 2026-04-25 16:34 | 37.61268 | -122.37762 | 18 ft | 6 kts | 117° |
| 2026-04-25 16:34 | 37.61247 | -122.37712 | 18 ft | 6 kts | 117° |
| 2026-04-25 16:34 | 37.61231 | -122.37658 | 18 ft | 7 kts | 98° |
| 2026-04-25 16:34 | 37.61231 | -122.37594 | 17 ft | 8 kts | 85° |
| 2026-04-25 16:35 | 37.61244 | -122.37531 | 18 ft | 7 kts | 63° |
| 2026-04-25 16:35 | 37.61278 | -122.37484 | 22 ft | 7 kts | 37° |
| 2026-04-25 16:35 | 37.61321 | -122.37456 | 21 ft | 7 kts | 26° |
| 2026-04-25 16:35 | 37.61365 | -122.37428 | 21 ft | 8 kts | 26° |
| 2026-04-25 16:36 | 37.61426 | -122.37389 | 21 ft | 12 kts | 28° |
| 2026-04-25 16:36 | 37.61453 | -122.37371 | 23 ft | 14 kts | 28° |
| 2026-04-25 16:36 | 37.61563 | -122.37179 | 22 ft | 21 kts | 91° |
| 2026-04-25 16:36 | 37.61503 | -122.36991 | 23 ft | 25 kts | 119° |
| 2026-04-25 16:37 | 37.61392 | -122.36816 | 19 ft | 26 kts | 127° |
| 2026-04-25 16:37 | 37.61303 | -122.36628 | 19 ft | 24 kts | 118° |
| 2026-04-25 16:37 | 37.61227 | -122.36447 | 18 ft | 23 kts | 117° |
| 2026-04-25 16:37 | 37.61154 | -122.36273 | 20 ft | 22 kts | 119° |
| 2026-04-25 16:38 | 37.61086 | -122.36112 | 21 ft | 13 kts | 117° |
| 2026-04-25 16:38 | 37.61053 | -122.36008 | 22 ft | 13 kts | 97° |
| 2026-04-25 16:38 | 37.61087 | -122.35915 | 21 ft | 12 kts | 38° |
| 2026-04-25 16:38 | 37.61095 | -122.35908 | 22 ft | 0 kts | 31° |
| 2026-04-25 16:39 | 37.61098 | -122.35906 | 22 ft | 1 kts | 31° |
| 2026-04-25 16:39 | 37.61102 | -122.35903 | 21 ft | 0 kts | 31° |
| 2026-04-25 16:40 | 37.61132 | -122.35884 | 21 ft | 10 kts | 25° |
| 2026-04-25 16:40 | 37.61201 | -122.35907 | 22 ft | 11 kts | 308° |
| 2026-04-25 16:41 | 37.61214 | -122.35941 | 20 ft | 1 kts | 295° |
| 2026-04-25 16:41 | 37.61215 | -122.35945 | 20 ft | 2 kts | 294° |
| 2026-04-25 16:41 | 37.61568 | -122.36789 | 21 ft | 134 kts | 297° |
| 2026-04-25 16:42 | 37.62091 | -122.38028 | 461 ft | 170 kts | 298° |
| 2026-04-25 16:42 | 37.62673 | -122.39339 | 1467 ft | 173 kts | 298° |
| 2026-04-25 16:42 | 37.63256 | -122.40682 | 2600 ft | 175 kts | 296° |
| 2026-04-25 16:42 | 37.63875 | -122.42149 | 3129 ft | 204 kts | 297° |
| 2026-04-25 16:43 | 37.64599 | -122.43828 | 3411 ft | 229 kts | 298° |
| 2026-04-25 16:43 | 37.65383 | -122.45623 | 4021 ft | 238 kts | 298° |
| 2026-04-25 16:43 | 37.66199 | -122.47477 | 4764 ft | 243 kts | 298° |
| 2026-04-25 16:43 | 37.66829 | -122.49456 | 5541 ft | 249 kts | 278° |
| 2026-04-25 16:44 | 37.66613 | -122.51684 | 6164 ft | 266 kts | 246° |
| 2026-04-25 16:44 | 37.65488 | -122.53552 | 7033 ft | 273 kts | 218° |
| 2026-04-25 16:44 | 37.63756 | -122.54541 | 7948 ft | 279 kts | 189° |
| 2026-04-25 16:44 | 37.61820 | -122.54379 | 8894 ft | 284 kts | 164° |
| 2026-04-25 16:45 | 37.59955 | -122.53490 | 9661 ft | 289 kts | 156° |
| 2026-04-25 16:45 | 37.58119 | -122.52428 | 9981 ft | 291 kts | 155° |
| 2026-04-25 16:45 | 37.56290 | -122.51371 | 10026 ft | 295 kts | 156° |
| 2026-04-25 16:45 | 37.54351 | -122.50302 | 10196 ft | 317 kts | 157° |
| 2026-04-25 16:46 | 37.52236 | -122.49173 | 10460 ft | 342 kts | 158° |
| 2026-04-25 16:46 | 37.50011 | -122.47990 | 11117 ft | 351 kts | 155° |
| 2026-04-25 16:46 | 37.47995 | -122.46259 | 11996 ft | 354 kts | 135° |
| 2026-04-25 16:46 | 37.47415 | -122.45510 | 12309 ft | 354 kts | 133° |
| 2026-04-25 16:47 | 37.44609 | -122.41678 | 13702 ft | 362 kts | 132° |
| 2026-04-25 16:47 | 37.42908 | -122.39317 | 14454 ft | 365 kts | 132° |
| 2026-04-25 16:47 | 37.41189 | -122.36936 | 15249 ft | 368 kts | 132° |
| 2026-04-25 16:47 | 37.39477 | -122.34575 | 16019 ft | 371 kts | 132° |
| 2026-04-25 16:48 | 37.37725 | -122.32176 | 16772 ft | 374 kts | 133° |
| 2026-04-25 16:48 | 37.35949 | -122.29755 | 17517 ft | 378 kts | 133° |
| 2026-04-25 16:48 | 37.34152 | -122.27313 | 18176 ft | 383 kts | 133° |
| 2026-04-25 16:48 | 37.32323 | -122.24832 | 18779 ft | 389 kts | 133° |
| 2026-04-25 16:49 | 37.30475 | -122.22328 | 19342 ft | 394 kts | 134° |
| 2026-04-25 16:49 | 37.28593 | -122.19782 | 19913 ft | 399 kts | 134° |
| 2026-04-25 16:49 | 37.26694 | -122.17216 | 20512 ft | 402 kts | 134° |
| 2026-04-25 16:49 | 37.24776 | -122.14626 | 21107 ft | 406 kts | 134° |
| 2026-04-25 16:50 | 37.22846 | -122.12022 | 21684 ft | 410 kts | 134° |
| 2026-04-25 16:50 | 37.20893 | -122.09389 | 22259 ft | 414 kts | 134° |
| 2026-04-25 16:50 | 37.18921 | -122.06731 | 22834 ft | 417 kts | 134° |
| 2026-04-25 16:50 | 37.16959 | -122.04091 | 23385 ft | 421 kts | 134° |
| 2026-04-25 16:51 | 37.14956 | -122.01395 | 23881 ft | 424 kts | 134° |
| 2026-04-25 16:51 | 37.12935 | -121.98679 | 24363 ft | 426 kts | 134° |
| 2026-04-25 16:51 | 37.10906 | -121.95954 | 24855 ft | 428 kts | 134° |
| 2026-04-25 16:51 | 37.10220 | -121.95034 | 25010 ft | 429 kts | 134° |
| 2026-04-25 16:52 | 37.06817 | -121.90469 | 25773 ft | 433 kts | 135° |
| 2026-04-25 16:52 | 37.04754 | -121.87705 | 26219 ft | 436 kts | 135° |
| 2026-04-25 16:52 | 37.02674 | -121.84921 | 26651 ft | 438 kts | 135° |
| 2026-04-25 16:52 | 37.00585 | -121.82128 | 27073 ft | 441 kts | 135° |
| 2026-04-25 16:53 | 36.96369 | -121.76497 | 27875 ft | 446 kts | 135° |
| 2026-04-25 16:53 | 36.94244 | -121.73663 | 28261 ft | 448 kts | 135° |
| 2026-04-25 16:53 | 36.92101 | -121.70806 | 28643 ft | 451 kts | 135° |
| 2026-04-25 16:54 | 36.89951 | -121.67944 | 29005 ft | 453 kts | 135° |
| 2026-04-25 16:54 | 36.87811 | -121.65097 | 29346 ft | 456 kts | 135° |
| 2026-04-25 16:54 | 36.85635 | -121.62205 | 29715 ft | 458 kts | 135° |
| 2026-04-25 16:54 | 36.83454 | -121.59309 | 30164 ft | 457 kts | 135° |
| 2026-04-25 16:55 | 36.81273 | -121.56414 | 30567 ft | 457 kts | 135° |
| 2026-04-25 16:55 | 36.79087 | -121.53517 | 30834 ft | 459 kts | 136° |
| 2026-04-25 16:55 | 36.76888 | -121.50605 | 31110 ft | 462 kts | 136° |
| 2026-04-25 16:55 | 36.74677 | -121.47680 | 31450 ft | 463 kts | 136° |
| 2026-04-25 16:56 | 36.73218 | -121.45749 | 31668 ft | 463 kts | 136° |
| 2026-04-25 16:56 | 36.71001 | -121.42821 | 31962 ft | 465 kts | 136° |
| 2026-04-25 16:56 | 36.68776 | -121.39884 | 32273 ft | 466 kts | 137° |
| 2026-04-25 16:56 | 36.65823 | -121.35990 | 32725 ft | 467 kts | 137° |
| 2026-04-25 16:57 | 36.63586 | -121.33042 | 32999 ft | 468 kts | 137° |
| 2026-04-25 16:57 | 36.59829 | -121.28101 | 32989 ft | 474 kts | 137° |
| 2026-04-25 16:58 | 36.55322 | -121.22177 | 32978 ft | 468 kts | 137° |
| 2026-04-25 16:58 | 36.50837 | -121.16293 | 32980 ft | 468 kts | 137° |
| 2026-04-25 16:59 | 36.46349 | -121.10418 | 32995 ft | 469 kts | 138° |
| 2026-04-25 16:59 | 36.41892 | -121.04555 | 32976 ft | 471 kts | 136° |
| 2026-04-25 17:00 | 36.37577 | -120.98390 | 32968 ft | 473 kts | 135° |
| 2026-04-25 17:00 | 36.33311 | -120.92145 | 32985 ft | 475 kts | 135° |
| 2026-04-25 17:01 | 36.29075 | -120.86012 | 32989 ft | 476 kts | 135° |
| 2026-04-25 17:01 | 36.24760 | -120.79826 | 32983 ft | 477 kts | 135° |
| 2026-04-25 17:02 | 36.20405 | -120.73606 | 32979 ft | 478 kts | 136° |
| 2026-04-25 17:02 | 36.16310 | -120.67766 | 32982 ft | 478 kts | 136° |
| 2026-04-25 17:03 | 36.11970 | -120.61587 | 32971 ft | 477 kts | 136° |
| 2026-04-25 17:03 | 36.07606 | -120.55383 | 32977 ft | 477 kts | 136° |
| 2026-04-25 17:04 | 36.03240 | -120.49189 | 32974 ft | 478 kts | 136° |
| 2026-04-25 17:04 | 35.98897 | -120.43038 | 32977 ft | 478 kts | 137° |
| 2026-04-25 17:05 | 35.94648 | -120.37031 | 32987 ft | 480 kts | 137° |
| 2026-04-25 17:05 | 35.87997 | -120.27721 | 32970 ft | 480 kts | 141° |
| 2026-04-25 17:06 | 35.82793 | -120.22808 | 32982 ft | 465 kts | 156° |
| 2026-04-25 17:06 | 35.77226 | -120.18748 | 32971 ft | 465 kts | 157° |
| 2026-04-25 17:07 | 35.71707 | -120.14652 | 32977 ft | 467 kts | 156° |
| 2026-04-25 17:07 | 35.66162 | -120.10475 | 32975 ft | 467 kts | 156° |
| 2026-04-25 17:08 | 35.60631 | -120.06298 | 32974 ft | 466 kts | 156° |
| 2026-04-25 17:08 | 35.55100 | -120.02120 | 32975 ft | 465 kts | 157° |
| 2026-04-25 17:09 | 35.49585 | -119.97963 | 32979 ft | 465 kts | 157° |
| 2026-04-25 17:09 | 35.44077 | -119.93820 | 32970 ft | 464 kts | 158° |
| 2026-04-25 17:10 | 35.38577 | -119.89689 | 32976 ft | 463 kts | 158° |
| 2026-04-25 17:10 | 35.33114 | -119.85592 | 32971 ft | 463 kts | 158° |
| 2026-04-25 17:11 | 35.27632 | -119.81420 | 32966 ft | 467 kts | 155° |
| 2026-04-25 17:11 | 35.22397 | -119.76608 | 32962 ft | 472 kts | 151° |
| 2026-04-25 17:12 | 35.17534 | -119.71892 | 32791 ft | 473 kts | 151° |
| 2026-04-25 17:12 | 35.14929 | -119.69408 | 32126 ft | 475 kts | 152° |
| 2026-04-25 17:12 | 35.12318 | -119.66945 | 31452 ft | 473 kts | 152° |
| 2026-04-25 17:13 | 35.09720 | -119.64515 | 30940 ft | 468 kts | 152° |
| 2026-04-25 17:13 | 35.08006 | -119.62918 | 30598 ft | 466 kts | 152° |
| 2026-04-25 17:13 | 35.04574 | -119.59728 | 29901 ft | 461 kts | 153° |
| 2026-04-25 17:13 | 35.02034 | -119.57371 | 29325 ft | 456 kts | 152° |
| 2026-04-25 17:14 | 34.99520 | -119.55039 | 28767 ft | 452 kts | 152° |
| 2026-04-25 17:14 | 34.97028 | -119.52728 | 28242 ft | 447 kts | 152° |
| 2026-04-25 17:14 | 34.94594 | -119.50472 | 27724 ft | 443 kts | 152° |
| 2026-04-25 17:14 | 34.92152 | -119.48210 | 27208 ft | 439 kts | 152° |
| 2026-04-25 17:15 | 34.89722 | -119.45983 | 26701 ft | 435 kts | 152° |
| 2026-04-25 17:15 | 34.87294 | -119.43806 | 26184 ft | 431 kts | 152° |
| 2026-04-25 17:15 | 34.84872 | -119.41651 | 25690 ft | 428 kts | 152° |
| 2026-04-25 17:15 | 34.82474 | -119.39519 | 25181 ft | 425 kts | 152° |
| 2026-04-25 17:16 | 34.80088 | -119.37392 | 24695 ft | 423 kts | 152° |
| 2026-04-25 17:16 | 34.77724 | -119.35280 | 24184 ft | 421 kts | 152° |
| 2026-04-25 17:16 | 34.75372 | -119.33180 | 23864 ft | 414 kts | 152° |
| 2026-04-25 17:16 | 34.73053 | -119.31126 | 23364 ft | 411 kts | 152° |
| 2026-04-25 17:17 | 34.70741 | -119.29110 | 22845 ft | 408 kts | 152° |
| 2026-04-25 17:17 | 34.68438 | -119.27106 | 22347 ft | 404 kts | 152° |
| 2026-04-25 17:17 | 34.66168 | -119.25127 | 21878 ft | 400 kts | 152° |
| 2026-04-25 17:17 | 34.63914 | -119.23165 | 21437 ft | 396 kts | 152° |
| 2026-04-25 17:18 | 34.61708 | -119.21262 | 20976 ft | 393 kts | 152° |
| 2026-04-25 17:18 | 34.59485 | -119.19349 | 20520 ft | 390 kts | 152° |
| 2026-04-25 17:18 | 34.57280 | -119.17452 | 20054 ft | 388 kts | 152° |
| 2026-04-25 17:18 | 34.55089 | -119.15552 | 19617 ft | 385 kts | 150° |
| 2026-04-25 17:19 | 34.52932 | -119.13643 | 19191 ft | 383 kts | 150° |
| 2026-04-25 17:19 | 34.50791 | -119.11737 | 18737 ft | 381 kts | 150° |
| 2026-04-25 17:19 | 34.48654 | -119.09839 | 18276 ft | 380 kts | 149° |
| 2026-04-25 17:19 | 34.46519 | -119.07947 | 17752 ft | 378 kts | 149° |
| 2026-04-25 17:20 | 34.44401 | -119.06075 | 17271 ft | 375 kts | 149° |
| 2026-04-25 17:20 | 34.42321 | -119.04256 | 16847 ft | 371 kts | 150° |
| 2026-04-25 17:20 | 34.40220 | -119.02439 | 16371 ft | 369 kts | 150° |
| 2026-04-25 17:20 | 34.38143 | -119.00646 | 15925 ft | 366 kts | 150° |
| 2026-04-25 17:21 | 34.36080 | -118.98863 | 15478 ft | 363 kts | 150° |
| 2026-04-25 17:21 | 34.34035 | -118.97092 | 15049 ft | 360 kts | 149° |
| 2026-04-25 17:21 | 34.32025 | -118.95289 | 14594 ft | 359 kts | 148° |
| 2026-04-25 17:21 | 34.30038 | -118.93473 | 14148 ft | 357 kts | 148° |
| 2026-04-25 17:22 | 34.28064 | -118.91671 | 13718 ft | 355 kts | 148° |
| 2026-04-25 17:22 | 34.26762 | -118.90487 | 13374 ft | 353 kts | 148° |
| 2026-04-25 17:22 | 34.24149 | -118.88107 | 12748 ft | 350 kts | 147° |
| 2026-04-25 17:22 | 34.22249 | -118.86359 | 12392 ft | 344 kts | 147° |
| 2026-04-25 17:23 | 34.20378 | -118.84633 | 12268 ft | 332 kts | 147° |
| 2026-04-25 17:23 | 34.18542 | -118.82945 | 12121 ft | 322 kts | 147° |
| 2026-04-25 17:23 | 34.16809 | -118.81354 | 11980 ft | 313 kts | 147° |
| 2026-04-25 17:23 | 34.15134 | -118.79688 | 11669 ft | 311 kts | 142° |
| 2026-04-25 17:24 | 34.13534 | -118.77940 | 11370 ft | 309 kts | 141° |
| 2026-04-25 17:24 | 34.11963 | -118.76190 | 11059 ft | 306 kts | 141° |
| 2026-04-25 17:24 | 34.10399 | -118.74459 | 10770 ft | 303 kts | 141° |
| 2026-04-25 17:24 | 34.08841 | -118.72752 | 10477 ft | 302 kts | 141° |
| 2026-04-25 17:25 | 34.07282 | -118.71054 | 10156 ft | 301 kts | 141° |
| 2026-04-25 17:25 | 34.05734 | -118.69375 | 9875 ft | 298 kts | 140° |
| 2026-04-25 17:25 | 34.04202 | -118.67704 | 9538 ft | 297 kts | 138° |
| 2026-04-25 17:25 | 34.03042 | -118.65654 | 9207 ft | 299 kts | 113° |
| 2026-04-25 17:26 | 34.02595 | -118.63213 | 8925 ft | 297 kts | 97° |
| 2026-04-25 17:26 | 34.02381 | -118.60746 | 8620 ft | 294 kts | 96° |
| 2026-04-25 17:26 | 34.02180 | -118.58329 | 8318 ft | 292 kts | 96° |
| 2026-04-25 17:26 | 34.01965 | -118.55903 | 8043 ft | 291 kts | 97° |
| 2026-04-25 17:27 | 34.01748 | -118.53487 | 7795 ft | 289 kts | 97° |
| 2026-04-25 17:27 | 34.01524 | -118.51080 | 7559 ft | 288 kts | 97° |
| 2026-04-25 17:27 | 34.01298 | -118.48677 | 7315 ft | 288 kts | 97° |
| 2026-04-25 17:27 | 34.01221 | -118.47865 | 7222 ft | 288 kts | 97° |
| 2026-04-25 17:28 | 34.01250 | -118.43895 | 6795 ft | 285 kts | 77° |
| 2026-04-25 17:28 | 34.01690 | -118.41573 | 6576 ft | 281 kts | 77° |
| 2026-04-25 17:28 | 34.02102 | -118.39315 | 6341 ft | 277 kts | 77° |
| 2026-04-25 17:28 | 34.02501 | -118.37056 | 6100 ft | 274 kts | 78° |
| 2026-04-25 17:29 | 34.02855 | -118.34847 | 6005 ft | 264 kts | 82° |
| 2026-04-25 17:29 | 34.03081 | -118.32702 | 5980 ft | 252 kts | 83° |
| 2026-04-25 17:29 | 34.03277 | -118.30646 | 5984 ft | 244 kts | 83° |
| 2026-04-25 17:29 | 34.03476 | -118.28620 | 5992 ft | 243 kts | 82° |
| 2026-04-25 17:30 | 34.03688 | -118.26608 | 5988 ft | 242 kts | 83° |
| 2026-04-25 17:30 | 34.03899 | -118.24598 | 5997 ft | 240 kts | 83° |
| 2026-04-25 17:30 | 34.04104 | -118.22604 | 5987 ft | 239 kts | 83° |
| 2026-04-25 17:30 | 34.04301 | -118.20614 | 6005 ft | 239 kts | 83° |
| 2026-04-25 17:31 | 34.04486 | -118.18622 | 6003 ft | 239 kts | 83° |
| 2026-04-25 17:31 | 34.04489 | -118.16623 | 5871 ft | 241 kts | 109° |
| 2026-04-25 17:31 | 34.03578 | -118.15032 | 5580 ft | 231 kts | 147° |
| 2026-04-25 17:31 | 34.02179 | -118.14172 | 5230 ft | 228 kts | 157° |
| 2026-04-25 17:32 | 34.00718 | -118.13495 | 4883 ft | 224 kts | 173° |
| 2026-04-25 17:32 | 33.99202 | -118.13726 | 4492 ft | 220 kts | 206° |
| 2026-04-25 17:32 | 33.98056 | -118.14889 | 4141 ft | 218 kts | 237° |
| 2026-04-25 17:32 | 33.97587 | -118.16592 | 3841 ft | 215 kts | 263° |
| 2026-04-25 17:33 | 33.97442 | -118.18386 | 3489 ft | 215 kts | 262° |
| 2026-04-25 17:33 | 33.97273 | -118.20137 | 3392 ft | 208 kts | 261° |
| 2026-04-25 17:33 | 33.97098 | -118.21862 | 3145 ft | 205 kts | 261° |
| 2026-04-25 17:33 | 33.96922 | -118.23561 | 2857 ft | 201 kts | 260° |
| 2026-04-25 17:34 | 33.96750 | -118.25217 | 2593 ft | 198 kts | 260° |
| 2026-04-25 17:34 | 33.96579 | -118.26868 | 2322 ft | 198 kts | 261° |
| 2026-04-25 17:34 | 33.96411 | -118.28491 | 2051 ft | 191 kts | 261° |
| 2026-04-25 17:34 | 33.96251 | -118.30041 | 1803 ft | 188 kts | 261° |
| 2026-04-25 17:35 | 33.96091 | -118.31594 | 1560 ft | 187 kts | 261° |
| 2026-04-25 17:35 | 33.95931 | -118.33146 | 1326 ft | 184 kts | 261° |
| 2026-04-25 17:35 | 33.95779 | -118.34631 | 1067 ft | 172 kts | 261° |
| 2026-04-25 17:35 | 33.95639 | -118.36008 | 832 ft | 159 kts | 260° |
| 2026-04-25 17:36 | 33.95511 | -118.37245 | 675 ft | 140 kts | 261° |
| 2026-04-25 17:36 | 33.95392 | -118.38407 | 463 ft | 138 kts | 261° |
| 2026-04-25 17:36 | 33.95269 | -118.39563 | 279 ft | 140 kts | 257° |
| 2026-04-25 17:36 | 33.95154 | -118.40726 | 131 ft | 133 kts | 259° |
| 2026-04-25 17:37 | 33.95059 | -118.41644 | 123 ft | 77 kts | 263° |
| 2026-04-25 17:37 | 33.95002 | -118.42174 | 123 ft | 59 kts | 263° |
| 2026-04-25 17:37 | 33.94971 | -118.42447 | 125 ft | 28 kts | 256° |
| 2026-04-25 17:37 | 33.94889 | -118.42632 | 122 ft | 16 kts | 230° |
| 2026-04-25 17:38 | 33.94868 | -118.42659 | 122 ft | 0 kts | 225° |
| 2026-04-25 17:39 | 33.94849 | -118.42682 | 124 ft | 10 kts | 225° |
| 2026-04-25 17:39 | 33.94765 | -118.42756 | 121 ft | 17 kts | 202° |
| 2026-04-25 17:39 | 33.94669 | -118.42772 | 123 ft | 12 kts | 161° |
| 2026-04-25 17:39 | 33.94638 | -118.42686 | 123 ft | 12 kts | 87° |
| 2026-04-25 17:40 | 33.94648 | -118.42589 | 123 ft | 12 kts | 84° |
| 2026-04-25 17:40 | 33.94656 | -118.42494 | 125 ft | 11 kts | 84° |
| 2026-04-25 17:40 | 33.94665 | -118.42402 | 125 ft | 11 kts | 81° |
| 2026-04-25 17:40 | 33.94677 | -118.42313 | 122 ft | 11 kts | 82° |
| 2026-04-25 17:41 | 33.94687 | -118.42227 | 121 ft | 10 kts | 82° |
| 2026-04-25 17:41 | 33.94702 | -118.42074 | 122 ft | 10 kts | 83° |
| 2026-04-25 17:41 | 33.94709 | -118.41994 | 125 ft | 9 kts | 83° |
| 2026-04-25 17:42 | 33.94717 | -118.41916 | 123 ft | 9 kts | 84° |
| 2026-04-25 17:42 | 33.94724 | -118.41840 | 125 ft | 9 kts | 82° |
| 2026-04-25 17:42 | 33.94733 | -118.41759 | 123 ft | 12 kts | 83° |
| 2026-04-25 17:42 | 33.94747 | -118.41625 | 120 ft | 21 kts | 83° |
| 2026-04-25 17:43 | 33.94771 | -118.41414 | 125 ft | 30 kts | 76° |
| 2026-04-25 17:43 | 33.94808 | -118.41152 | 123 ft | 35 kts | 84° |
| 2026-04-25 17:43 | 33.94838 | -118.40860 | 125 ft | 31 kts | 82° |
| 2026-04-25 17:43 | 33.94857 | -118.40668 | 125 ft | 16 kts | 83° |
| 2026-04-25 17:44 | 33.94851 | -118.40615 | 125 ft | 2 kts | 130° |
| 2026-04-25 17:44 | 33.94838 | -118.40606 | 122 ft | 3 kts | 153° |
| 2026-04-25 17:44 | 33.94809 | -118.40594 | 122 ft | 6 kts | 164° |
| 2026-04-25 17:44 | 33.94757 | -118.40583 | 123 ft | 9 kts | 173° |
| 2026-04-25 17:45 | 33.94702 | -118.40574 | 123 ft | 1 kts | 167° |
| 2026-04-25 17:45 | 33.94699 | -118.40573 | 123 ft | 2 kts | 161° |
| 2026-04-25 17:45 | 33.94674 | -118.40502 | 124 ft | 3 kts | 103° |
| 2026-04-25 17:45 | 33.94667 | -118.40484 | 124 ft | 0 kts | 117° |